Terminal Aerodrome Forecast
Issued by NWS Tulsa, OK

Home | Current Version | Previous Version | Text Only | Print | Product List | Glossary On
Versions: 1 2 3 4 5 6 7 8 9 10 11 12 13 14 15
000
FTUS44 KTSA 152300
TAFFSM
TAF
KFSM 152320Z 1600/1624 19004KT P6SM SKC
     FM160600 07005KT P6SM SCT250 WS020/18040KT
     FM161600 16012G20KT P6SM SCT250=

USA.gov is the U.S. government's official web portal to all federal, state and local government web resources and services.